createdAt,value
2023-05-09T00:00:57.436Z,12.35
2023-05-09T00:01:57.459Z,12.31
2023-05-09T00:02:57.430Z,12.29
2023-05-09T00:03:57.414Z,12.28
2023-05-09T00:04:57.377Z,12.31
2023-05-09T00:05:57.373Z,12.36
2023-05-09T00:06:57.493Z,12.36
2023-05-09T00:07:57.345Z,12.35
2023-05-09T00:08:57.329Z,12.32
2023-05-09T00:09:57.322Z,12.29
2023-05-09T00:10:57.301Z,12.31
2023-05-09T00:11:57.304Z,12.32
2023-05-09T00:12:57.301Z,12.36
2023-05-09T00:13:57.269Z,12.36
2023-05-09T00:14:57.260Z,12.37
2023-05-09T00:15:57.316Z,12.35
2023-05-09T00:16:57.399Z,12.39
2023-05-09T00:17:57.241Z,12.37
2023-05-09T00:18:57.197Z,12.39
2023-05-09T00:19:57.186Z,12.39
2023-05-09T00:20:57.176Z,12.39
2023-05-09T00:21:57.166Z,12.40
2023-05-09T00:22:57.292Z,12.42
2023-05-09T00:23:57.134Z,12.42
2023-05-09T00:24:57.133Z,12.45
2023-05-09T00:25:57.142Z,12.46
2023-05-09T00:26:57.099Z,12.47
2023-05-09T00:27:57.090Z,12.45
2023-05-09T00:28:57.070Z,12.46
2023-05-09T00:29:57.065Z,12.46
2023-05-09T00:30:57.057Z,12.46
2023-05-09T00:31:57.094Z,12.47
2023-05-09T00:32:57.047Z,12.49
2023-05-09T00:33:57.007Z,12.46
2023-05-09T00:34:56.994Z,12.45
2023-05-09T00:35:56.983Z,12.46
2023-05-09T00:36:56.974Z,12.47
2023-05-09T00:37:56.955Z,12.46
2023-05-09T00:38:57.092Z,12.49
2023-05-09T00:39:56.945Z,12.50
2023-05-09T00:40:56.916Z,12.47
2023-05-09T00:41:56.908Z,12.50
2023-05-09T00:42:56.909Z,12.50
2023-05-09T00:43:56.881Z,12.55
2023-05-09T00:44:56.861Z,12.54
2023-05-09T00:45:56.912Z,12.54
2023-05-09T00:46:56.848Z,12.54
2023-05-09T00:47:56.922Z,12.54
2023-05-09T00:48:56.812Z,12.49
2023-05-09T00:49:56.805Z,12.54
2023-05-09T00:50:56.796Z,12.49
2023-05-09T00:51:56.797Z,12.47
2023-05-09T00:52:56.758Z,12.47
2023-05-09T00:53:56.751Z,12.46
2023-05-09T00:54:56.867Z,12.47
2023-05-09T00:55:56.738Z,12.45
2023-05-09T00:56:56.743Z,12.45
2023-05-09T00:57:56.711Z,12.43
2023-05-09T00:58:56.685Z,12.40
2023-05-09T00:59:56.676Z,12.43
2023-05-09T01:00:56.665Z,12.47
2023-05-09T01:01:56.644Z,12.43
2023-05-09T01:02:56.779Z,12.46
2023-05-09T01:03:56.619Z,12.47
2023-05-09T01:04:56.611Z,12.50
2023-05-09T01:05:56.616Z,12.49
2023-05-09T01:06:56.583Z,12.53
2023-05-09T01:07:56.570Z,12.53
2023-05-09T01:08:56.574Z,12.49
2023-05-09T01:09:56.551Z,12.50
2023-05-09T01:10:56.651Z,12.50
2023-05-09T01:11:56.529Z,12.53
2023-05-09T01:12:56.545Z,12.53
2023-05-09T01:13:56.494Z,12.50
2023-05-09T01:14:56.489Z,12.55
2023-05-09T01:15:56.487Z,12.58
2023-05-09T01:16:56.475Z,12.57
2023-05-09T01:17:56.569Z,12.58
2023-05-09T01:18:56.445Z,12.57
2023-05-09T01:19:56.430Z,12.55
2023-05-09T01:20:56.417Z,12.58
2023-05-09T01:21:56.397Z,12.58
2023-05-09T01:22:56.381Z,12.54
2023-05-09T01:23:56.382Z,12.58
2023-05-09T01:24:56.386Z,12.58
2023-05-09T01:25:56.347Z,12.58
2023-05-09T01:26:56.455Z,12.61
2023-05-09T01:27:56.319Z,12.61
2023-05-09T01:28:56.312Z,12.58
2023-05-09T01:29:56.322Z,12.61
2023-05-09T01:30:56.315Z,12.57
2023-05-09T01:31:56.268Z,12.60
2023-05-09T01:32:56.334Z,12.60
2023-05-09T01:33:56.240Z,12.62
2023-05-09T01:34:56.239Z,12.62
2023-05-09T01:35:56.216Z,12.62
2023-05-09T01:36:56.205Z,12.67
2023-05-09T01:37:56.199Z,12.70
2023-05-09T01:38:56.190Z,12.65
2023-05-09T01:39:56.167Z,12.68
2023-05-09T01:40:56.171Z,12.70
2023-05-09T01:41:56.133Z,12.70
2023-05-09T01:42:56.258Z,12.73
2023-05-09T01:43:56.223Z,12.72
2023-05-09T01:44:56.102Z,12.73
2023-05-09T01:45:56.086Z,12.72
2023-05-09T01:46:56.146Z,12.70
2023-05-09T01:47:56.105Z,12.75
2023-05-09T01:48:56.054Z,12.73
2023-05-09T01:49:56.039Z,12.70
2023-05-09T01:50:56.025Z,12.76
2023-05-09T01:51:56.005Z,12.79
2023-05-09T01:52:56.002Z,12.78
2023-05-09T01:53:55.984Z,12.76
2023-05-09T01:54:55.987Z,12.75
2023-05-09T01:55:55.956Z,12.76
2023-05-09T01:56:55.944Z,12.67
2023-05-09T01:57:55.962Z,12.78
2023-05-09T01:58:56.045Z,12.79
2023-05-09T01:59:55.904Z,12.79
2023-05-09T02:00:55.937Z,12.79
2023-05-09T02:01:55.900Z,12.79
2023-05-09T02:02:56.087Z,12.76
2023-05-09T02:03:55.867Z,12.78
2023-05-09T02:04:55.838Z,12.80
2023-05-09T02:05:55.836Z,12.80
2023-05-09T02:06:55.826Z,12.78
2023-05-09T02:07:55.808Z,12.79
2023-05-09T02:08:55.791Z,12.75
2023-05-09T02:09:55.773Z,12.79
2023-05-09T02:10:55.771Z,12.80
2023-05-09T02:11:55.750Z,12.80
2023-05-09T02:12:55.850Z,12.76
2023-05-09T02:13:55.732Z,12.78
2023-05-09T02:14:55.834Z,12.76
2023-05-09T02:15:55.707Z,12.76
2023-05-09T02:16:55.710Z,12.72
2023-05-09T02:17:55.748Z,12.70
2023-05-09T02:18:55.659Z,12.75
2023-05-09T02:19:55.646Z,12.73
2023-05-09T02:20:55.659Z,12.72
2023-05-09T02:21:55.627Z,12.75
2023-05-09T02:22:55.618Z,12.75
2023-05-09T02:23:55.604Z,12.75
2023-05-09T02:24:55.592Z,12.78
2023-05-09T02:25:55.572Z,12.75
2023-05-09T02:26:55.566Z,12.78
2023-05-09T02:27:55.548Z,12.78
2023-05-09T02:28:55.538Z,12.75
2023-05-09T02:29:55.523Z,12.75
2023-05-09T02:30:55.627Z,12.73
2023-05-09T02:31:55.560Z,12.76
2023-05-09T02:32:55.527Z,12.75
2023-05-09T02:33:55.463Z,12.75
2023-05-09T02:34:55.461Z,12.72
2023-05-09T02:35:55.448Z,12.70
2023-05-09T02:36:55.432Z,12.75
2023-05-09T02:37:55.419Z,12.72
2023-05-09T02:38:55.399Z,12.73
2023-05-09T02:39:55.404Z,12.70
2023-05-09T02:40:55.376Z,12.75
2023-05-09T02:41:55.372Z,12.75
2023-05-09T02:42:55.367Z,12.76
2023-05-09T02:43:55.349Z,12.76
2023-05-09T02:44:55.330Z,12.76
2023-05-09T02:45:55.325Z,12.76
2023-05-09T02:46:55.429Z,12.80
2023-05-09T02:47:55.330Z,12.80
2023-05-09T02:48:55.299Z,12.78
2023-05-09T02:49:55.267Z,12.83
2023-05-09T02:50:55.256Z,12.82
2023-05-09T02:51:55.245Z,12.80
2023-05-09T02:52:55.228Z,12.82
2023-05-09T02:53:55.214Z,12.79
2023-05-09T02:54:55.203Z,12.80
2023-05-09T02:55:55.195Z,12.78
2023-05-09T02:56:55.184Z,12.79
2023-05-09T02:58:09.126Z,12.78
2023-05-09T02:58:56.182Z,12.80
2023-05-09T02:59:55.156Z,12.79
2023-05-09T03:00:55.118Z,12.83
2023-05-09T03:01:55.208Z,12.83
2023-05-09T03:02:55.336Z,12.83
2023-05-09T03:03:55.163Z,12.85
2023-05-09T03:04:55.078Z,12.83
2023-05-09T03:05:55.074Z,12.85
2023-05-09T03:06:55.055Z,12.85
2023-05-09T03:07:55.029Z,12.85
2023-05-09T03:08:55.032Z,12.82
2023-05-09T03:09:55.006Z,12.85
2023-05-09T03:10:54.997Z,12.87
2023-05-09T03:11:54.978Z,12.82
2023-05-09T03:12:54.995Z,12.80
2023-05-09T03:13:54.952Z,12.80
2023-05-09T03:14:54.952Z,12.83
2023-05-09T03:15:54.960Z,12.83
2023-05-09T03:16:54.913Z,12.83
2023-05-09T03:17:54.951Z,12.78
2023-05-09T03:18:55.022Z,12.80
2023-05-09T03:19:54.880Z,12.80
2023-05-09T03:20:54.866Z,12.80
2023-05-09T03:21:54.858Z,12.82
2023-05-09T03:22:54.865Z,12.86
2023-05-09T03:23:54.841Z,12.83
2023-05-09T03:24:54.814Z,12.85
2023-05-09T03:25:54.807Z,12.86
2023-05-09T03:26:54.785Z,12.87
2023-05-09T03:27:54.791Z,12.85
2023-05-09T03:28:54.760Z,12.83
2023-05-09T03:29:54.753Z,12.85
2023-05-09T03:30:54.741Z,12.85
2023-05-09T03:31:54.805Z,12.85
2023-05-09T03:32:54.770Z,12.87
2023-05-09T03:33:54.701Z,12.83
2023-05-09T03:34:54.816Z,12.87
2023-05-09T03:35:54.673Z,12.83
2023-05-09T03:36:54.664Z,12.82
2023-05-09T03:37:54.662Z,12.80
2023-05-09T03:38:54.642Z,12.82
2023-05-09T03:39:54.635Z,12.80
2023-05-09T03:40:54.622Z,12.80
2023-05-09T03:41:54.603Z,12.85
2023-05-09T03:42:54.591Z,12.79
2023-05-09T03:43:54.574Z,12.78
2023-05-09T03:44:54.569Z,12.79
2023-05-09T03:45:54.546Z,12.79
2023-05-09T03:46:54.684Z,12.83
2023-05-09T03:47:54.535Z,12.79
2023-05-09T03:48:54.515Z,12.79
2023-05-09T03:49:54.491Z,12.79
2023-05-09T03:50:54.614Z,12.82
2023-05-09T03:51:54.479Z,12.85
2023-05-09T03:52:54.456Z,12.76
2023-05-09T03:53:54.444Z,12.85
2023-05-09T03:54:54.437Z,12.82
2023-05-09T03:55:54.418Z,12.83
2023-05-09T03:56:54.410Z,12.78
2023-05-09T03:57:54.417Z,12.82
2023-05-09T03:58:54.387Z,12.83
2023-05-09T03:59:54.374Z,12.80
2023-05-09T04:00:54.371Z,12.85
2023-05-09T04:01:54.377Z,12.82
2023-05-09T04:02:54.420Z,12.83
2023-05-09T04:03:54.425Z,12.85
2023-05-09T04:04:54.312Z,12.83
2023-05-09T04:05:54.293Z,12.83
2023-05-09T04:06:54.409Z,12.85
2023-05-09T04:07:54.265Z,12.79
2023-05-09T04:08:54.265Z,12.85
2023-05-09T04:09:54.245Z,12.85
2023-05-09T04:10:54.239Z,12.83
2023-05-09T04:11:54.217Z,12.83
2023-05-09T04:12:54.220Z,12.80
2023-05-09T04:13:54.193Z,12.82
2023-05-09T04:14:54.175Z,12.80
2023-05-09T04:15:54.181Z,12.80
2023-05-09T04:16:54.208Z,12.78
2023-05-09T04:17:54.266Z,12.80
2023-05-09T04:18:54.145Z,12.80
2023-05-09T04:19:54.177Z,12.82
2023-05-09T04:20:54.103Z,12.83
2023-05-09T04:21:54.095Z,12.80
2023-05-09T04:22:54.198Z,12.82
2023-05-09T04:23:54.070Z,12.82
2023-05-09T04:24:54.075Z,12.79
2023-05-09T04:25:54.036Z,12.82
2023-05-09T04:26:54.033Z,12.83
2023-05-09T04:27:54.027Z,12.86
2023-05-09T04:28:54.000Z,12.85
2023-05-09T04:29:53.998Z,12.83
2023-05-09T04:30:54.118Z,12.86
2023-05-09T04:31:54.168Z,12.82
2023-05-09T04:32:53.977Z,12.82
2023-05-09T04:33:53.935Z,12.87
2023-05-09T04:34:53.928Z,12.83
2023-05-09T04:35:53.912Z,12.85
2023-05-09T04:36:53.901Z,12.87
2023-05-09T04:37:53.892Z,12.90
2023-05-09T04:38:54.001Z,12.86
2023-05-09T04:39:53.865Z,12.90
2023-05-09T04:40:53.853Z,12.93
2023-05-09T04:41:53.841Z,12.91
2023-05-09T04:42:53.833Z,12.85
2023-05-09T04:43:53.812Z,12.87
2023-05-09T04:44:53.802Z,12.90
2023-05-09T04:45:53.805Z,12.93
2023-05-09T04:46:53.764Z,12.86
2023-05-09T04:47:53.886Z,12.86
2023-05-09T04:48:53.760Z,12.87
2023-05-09T04:49:53.744Z,12.86
2023-05-09T04:50:53.725Z,12.86
2023-05-09T04:51:53.708Z,12.93
2023-05-09T04:52:53.690Z,12.94
2023-05-09T04:53:53.682Z,12.91
2023-05-09T04:54:53.790Z,12.91
2023-05-09T04:55:53.658Z,12.83
2023-05-09T04:56:57.913Z,12.87
2023-05-09T04:57:54.676Z,12.95
2023-05-09T04:58:53.625Z,12.91
2023-05-09T04:59:53.598Z,12.86
2023-05-09T05:00:53.600Z,12.80
2023-05-09T05:01:53.620Z,12.83
2023-05-09T05:02:53.575Z,12.82
2023-05-09T05:03:53.546Z,12.85
2023-05-09T05:05:02.985Z,12.82
2023-05-09T05:05:54.591Z,12.83
2023-05-09T05:06:53.540Z,12.85
2023-05-09T05:07:53.510Z,12.87
2023-05-09T05:08:53.487Z,12.91
2023-05-09T05:09:53.468Z,12.90
2023-05-09T05:10:53.596Z,12.86
2023-05-09T05:11:59.967Z,12.86
2023-05-09T05:12:54.476Z,12.86
2023-05-09T05:13:53.428Z,12.85
2023-05-09T05:14:53.416Z,12.85
2023-05-09T05:15:53.456Z,12.85
2023-05-09T05:16:53.380Z,12.90
2023-05-09T05:17:53.370Z,12.87
2023-05-09T05:18:53.377Z,12.87
2023-05-09T05:19:53.351Z,12.83
2023-05-09T05:20:53.333Z,12.80
2023-05-09T05:21:53.313Z,12.83
2023-05-09T05:22:53.316Z,12.82
2023-05-09T05:23:53.304Z,12.80
2023-05-09T05:24:53.277Z,12.83
2023-05-09T05:25:53.264Z,12.85
2023-05-09T05:26:53.395Z,12.83
2023-05-09T05:27:53.245Z,12.85
2023-05-09T05:28:53.228Z,12.87
2023-05-09T05:29:53.231Z,12.82
2023-05-09T05:30:53.219Z,12.83
2023-05-09T05:31:53.327Z,12.85
2023-05-09T05:32:53.264Z,12.85
2023-05-09T05:33:53.170Z,12.80
2023-05-09T05:34:53.159Z,12.78
2023-05-09T05:35:53.143Z,12.78
2023-05-09T05:36:53.169Z,12.85
2023-05-09T05:37:53.120Z,12.79
2023-05-09T05:38:53.100Z,12.83
2023-05-09T05:39:53.084Z,12.83
2023-05-09T05:40:53.073Z,12.83
2023-05-09T05:41:53.063Z,12.87
2023-05-09T05:42:53.171Z,12.83
2023-05-09T05:43:54.274Z,12.85
2023-05-09T05:44:53.016Z,12.86
2023-05-09T05:45:53.021Z,12.90
2023-05-09T05:46:52.992Z,12.91
2023-05-09T05:47:53.040Z,12.94
2023-05-09T05:48:52.987Z,12.95
2023-05-09T05:49:52.952Z,13.01
2023-05-09T05:50:52.950Z,12.91
2023-05-09T05:51:52.927Z,12.86
2023-05-09T05:52:52.929Z,12.85
2023-05-09T05:53:52.912Z,12.91
2023-05-09T05:54:52.904Z,12.98
2023-05-09T05:55:52.898Z,13.04
2023-05-09T05:56:52.863Z,13.04
2023-05-09T05:57:52.857Z,13.09
2023-05-09T05:58:52.969Z,13.09
2023-05-09T05:59:52.834Z,13.13
2023-05-09T06:00:52.822Z,13.19
2023-05-09T06:01:52.835Z,13.18
2023-05-09T06:02:52.852Z,13.19
2023-05-09T06:03:52.878Z,13.20
2023-05-09T06:04:53.960Z,13.25
2023-05-09T06:05:52.744Z,13.23
2023-05-09T06:06:52.741Z,13.27
2023-05-09T06:07:52.722Z,13.28
2023-05-09T06:08:52.717Z,13.35
2023-05-09T06:09:52.694Z,13.35
2023-05-09T06:10:52.707Z,13.41
2023-05-09T06:11:52.676Z,13.47
2023-05-09T06:12:52.689Z,13.46
2023-05-09T06:13:52.643Z,13.52
2023-05-09T06:14:52.676Z,13.60
2023-05-09T06:15:52.628Z,13.68
2023-05-09T06:16:52.658Z,13.87
2023-05-09T06:17:52.626Z,14.15
2023-05-09T06:18:55.569Z,14.36
2023-05-09T06:19:52.570Z,14.59
2023-05-09T06:20:52.551Z,14.60
2023-05-09T06:21:52.581Z,14.70
2023-05-09T06:22:52.530Z,14.81
2023-05-09T06:24:06.406Z,14.89
2023-05-09T06:24:53.537Z,15.14
2023-05-09T06:25:52.497Z,15.22
2023-05-09T06:26:52.484Z,15.31
2023-05-09T06:27:52.498Z,15.44
2023-05-09T06:28:52.455Z,15.55
2023-05-09T06:29:52.445Z,15.47
2023-05-09T06:30:52.551Z,15.42
2023-05-09T06:31:52.540Z,15.29
2023-05-09T06:32:52.521Z,15.11
2023-05-09T06:33:52.402Z,14.89
2023-05-09T06:34:52.376Z,14.70
2023-05-09T06:35:52.367Z,14.60
2023-05-09T06:36:52.372Z,14.48
2023-05-09T06:37:52.345Z,14.48
2023-05-09T06:38:52.334Z,14.43
2023-05-09T06:39:52.325Z,14.37
2023-05-09T06:40:52.312Z,14.36
2023-05-09T06:41:52.296Z,14.29
2023-05-09T06:42:52.330Z,14.26
2023-05-09T06:43:52.263Z,14.28
2023-05-09T06:44:52.268Z,14.26
2023-05-09T06:45:52.273Z,14.35
2023-05-09T06:46:52.353Z,14.35
2023-05-09T06:47:52.226Z,14.45
2023-05-09T06:48:52.211Z,14.51
2023-05-09T06:49:52.223Z,14.62
2023-05-09T06:50:52.191Z,14.69
2023-05-09T06:51:52.173Z,14.73
2023-05-09T06:52:52.153Z,14.89
2023-05-09T06:53:52.147Z,15.04
2023-05-09T06:54:52.121Z,15.00
2023-05-09T06:55:52.125Z,15.03
2023-05-09T06:56:52.105Z,15.28
2023-05-09T06:57:52.095Z,15.54
2023-05-09T06:58:52.088Z,15.73
2023-05-09T06:59:52.068Z,15.94
2023-05-09T07:00:52.056Z,16.20
2023-05-09T07:01:52.062Z,16.16
2023-05-09T07:02:52.191Z,16.15
2023-05-09T07:03:52.250Z,16.15
2023-05-09T07:04:52.067Z,16.08
2023-05-09T07:05:51.997Z,16.09
2023-05-09T07:06:51.977Z,16.04
2023-05-09T07:07:51.968Z,16.26
2023-05-09T07:08:51.946Z,17.19
2023-05-09T07:09:55.207Z,17.72
2023-05-09T07:10:52.971Z,18.01
2023-05-09T07:11:51.906Z,18.50
2023-05-09T07:12:51.906Z,19.22
2023-05-09T07:13:51.887Z,20.07
2023-05-09T07:14:51.875Z,20.44
2023-05-09T07:15:51.903Z,20.85
2023-05-09T07:16:51.931Z,21.73
2023-05-09T07:17:51.850Z,22.76
2023-05-09T07:18:51.952Z,23.63
2023-05-09T07:19:51.916Z,24.26
2023-05-09T07:20:51.798Z,24.16
2023-05-09T07:21:51.785Z,24.33
2023-05-09T07:22:51.871Z,23.41
2023-05-09T07:23:51.765Z,22.90
2023-05-09T07:24:51.745Z,22.72
2023-05-09T07:25:51.746Z,22.23
2023-05-09T07:26:51.719Z,21.89
2023-05-09T07:27:51.719Z,21.85
2023-05-09T07:28:51.694Z,20.90
2023-05-09T07:29:51.686Z,20.87
2023-05-09T07:30:51.661Z,21.64
2023-05-09T07:31:51.690Z,21.67
2023-05-09T07:32:51.681Z,21.96
2023-05-09T07:33:51.641Z,21.98
2023-05-09T07:34:51.645Z,22.54
2023-05-09T07:35:51.621Z,22.25
2023-05-09T07:36:51.601Z,21.93
2023-05-09T07:37:51.598Z,21.73
2023-05-09T07:38:51.558Z,20.93
2023-05-09T07:39:51.557Z,19.92
2023-05-09T07:40:51.523Z,19.95
2023-05-09T07:41:51.520Z,20.60
2023-05-09T07:42:51.495Z,20.70
2023-05-09T07:43:51.490Z,20.67
2023-05-09T07:44:51.476Z,20.36
2023-05-09T07:45:51.471Z,21.24
2023-05-09T07:46:51.453Z,20.65
2023-05-09T07:47:51.480Z,19.51
2023-05-09T07:48:51.421Z,18.89
2023-05-09T07:49:51.415Z,18.23
2023-05-09T07:50:51.524Z,17.68
2023-05-09T07:51:51.379Z,17.29
2023-05-09T07:52:51.375Z,17.02
2023-05-09T07:53:51.379Z,17.74
2023-05-09T07:54:51.356Z,17.56
2023-05-09T07:55:51.323Z,17.22
2023-05-09T07:56:51.329Z,17.02
2023-05-09T07:57:51.315Z,16.87
2023-05-09T07:58:52.595Z,16.91
2023-05-09T07:59:51.287Z,16.74
2023-05-09T08:00:51.263Z,16.69
2023-05-09T08:01:51.295Z,16.66
2023-05-09T08:02:51.296Z,16.54
2023-05-09T08:03:51.340Z,16.53
2023-05-09T08:04:51.209Z,16.68
2023-05-09T08:05:51.196Z,16.90
2023-05-09T08:06:51.329Z,16.89
2023-05-09T08:07:51.188Z,17.01
2023-05-09T08:08:51.157Z,16.84
2023-05-09T08:09:51.153Z,16.74
2023-05-09T08:10:51.138Z,16.76
2023-05-09T08:11:51.118Z,16.72
2023-05-09T08:12:51.127Z,16.76
2023-05-09T08:13:51.105Z,16.79
2023-05-09T08:14:51.101Z,16.69
2023-05-09T08:15:51.126Z,16.71
2023-05-09T08:16:51.073Z,16.56
2023-05-09T08:17:51.064Z,16.53
2023-05-09T08:18:51.036Z,16.39
2023-05-09T08:19:51.038Z,16.46
2023-05-09T08:20:51.020Z,16.39
2023-05-09T08:21:51.003Z,16.49
2023-05-09T08:22:51.121Z,16.41
2023-05-09T08:23:50.971Z,16.38
2023-05-09T08:24:50.970Z,16.36
2023-05-09T08:25:50.950Z,16.42
2023-05-09T08:26:50.934Z,16.35
2023-05-09T08:27:52.967Z,16.41
2023-05-09T08:28:50.907Z,16.36
2023-05-09T08:29:50.895Z,16.39
2023-05-09T08:30:50.893Z,16.29
2023-05-09T08:31:50.957Z,16.23
2023-05-09T08:32:50.885Z,16.12
2023-05-09T08:33:50.844Z,16.02
2023-05-09T08:34:50.831Z,15.94
2023-05-09T08:35:50.815Z,15.94
2023-05-09T08:36:50.806Z,16.00
2023-05-09T08:37:50.805Z,15.95
2023-05-09T08:38:50.900Z,16.00
2023-05-09T08:39:50.766Z,16.00
2023-05-09T08:40:50.762Z,15.97
2023-05-09T08:41:50.748Z,15.94
2023-05-09T08:42:50.741Z,16.02
2023-05-09T08:43:50.727Z,16.10
2023-05-09T08:44:50.702Z,16.08
2023-05-09T08:45:50.695Z,16.02
2023-05-09T08:46:50.714Z,16.12
2023-05-09T08:47:50.702Z,16.10
2023-05-09T08:48:50.660Z,16.13
2023-05-09T08:49:50.664Z,16.21
2023-05-09T08:50:50.637Z,16.31
2023-05-09T08:51:50.623Z,16.47
2023-05-09T08:52:50.604Z,16.50
2023-05-09T08:53:50.591Z,16.65
2023-05-09T08:54:50.704Z,16.71
2023-05-09T08:55:50.578Z,16.75
2023-05-09T08:56:50.578Z,16.78
2023-05-09T08:57:50.536Z,16.74
2023-05-09T08:58:50.531Z,16.76
2023-05-09T08:59:50.513Z,16.60
2023-05-09T09:00:50.515Z,16.53
2023-05-09T09:01:50.555Z,16.61
2023-05-09T09:02:50.570Z,16.69
2023-05-09T09:03:50.456Z,16.74
2023-05-09T09:04:50.577Z,16.79
2023-05-09T09:05:50.474Z,16.74
2023-05-09T09:06:50.411Z,16.69
2023-05-09T09:07:50.402Z,16.86
2023-05-09T09:08:50.407Z,17.02
2023-05-09T09:09:50.392Z,17.04
2023-05-09T09:10:50.594Z,17.06
2023-05-09T09:11:50.353Z,17.19
2023-05-09T09:12:50.554Z,17.14
2023-05-09T09:13:50.324Z,17.31
2023-05-09T09:14:50.315Z,17.31
2023-05-09T09:15:50.294Z,17.45
2023-05-09T09:16:50.352Z,17.42
2023-05-09T09:17:50.293Z,17.34
2023-05-09T09:18:50.271Z,17.33
2023-05-09T09:19:50.248Z,17.31
2023-05-09T09:20:50.234Z,17.24
2023-05-09T09:21:50.227Z,17.08
2023-05-09T09:22:50.231Z,17.09
2023-05-09T09:23:50.200Z,16.99
2023-05-09T09:24:50.190Z,16.91
2023-05-09T09:25:50.171Z,16.86
2023-05-09T09:26:50.292Z,16.79
2023-05-09T09:27:50.150Z,16.84
2023-05-09T09:28:50.126Z,16.83
2023-05-09T09:29:50.123Z,16.84
2023-05-09T09:30:50.107Z,16.83
2023-05-09T09:31:50.094Z,17.02
2023-05-09T09:32:50.112Z,17.14
2023-05-09T09:33:50.062Z,17.15
2023-05-09T09:34:50.083Z,17.24
2023-05-09T09:35:50.070Z,17.26
2023-05-09T09:36:50.042Z,17.19
2023-05-09T09:37:50.028Z,17.16
2023-05-09T09:38:49.995Z,17.20
2023-05-09T09:39:49.985Z,17.26
2023-05-09T09:40:49.989Z,17.24
2023-05-09T09:41:49.978Z,17.12
2023-05-09T09:42:50.116Z,17.08
2023-05-09T09:43:49.930Z,17.12
2023-05-09T09:44:49.923Z,17.20
2023-05-09T09:45:49.942Z,17.39
2023-05-09T09:46:49.894Z,17.49
2023-05-09T09:47:49.914Z,17.51
2023-05-09T09:48:49.875Z,17.45
2023-05-09T09:49:49.855Z,17.38
2023-05-09T09:50:49.860Z,17.34
2023-05-09T09:51:49.836Z,17.42
2023-05-09T09:52:49.825Z,17.44
2023-05-09T09:53:49.819Z,17.45
2023-05-09T09:54:49.795Z,17.54
2023-05-09T09:55:49.784Z,17.63
2023-05-09T09:56:49.784Z,17.54
2023-05-09T09:57:49.769Z,17.56
2023-05-09T09:58:49.868Z,17.59
2023-05-09T09:59:49.737Z,17.56
2023-05-09T10:00:49.782Z,17.57
2023-05-09T10:01:49.766Z,17.68
2023-05-09T10:02:49.739Z,17.79
2023-05-09T10:03:49.742Z,17.85
2023-05-09T10:04:49.664Z,17.60
2023-05-09T10:05:49.653Z,17.57
2023-05-09T10:06:49.647Z,17.70
2023-05-09T10:07:49.627Z,17.83
2023-05-09T10:08:49.608Z,17.90
2023-05-09T10:09:49.611Z,17.82
2023-05-09T10:10:49.586Z,17.76
2023-05-09T10:11:49.567Z,17.70
2023-05-09T10:12:49.569Z,17.70
2023-05-09T10:13:49.547Z,17.83
2023-05-09T10:14:49.665Z,17.89
2023-05-09T10:15:53.717Z,17.95
2023-05-09T10:16:49.607Z,18.08
2023-05-09T10:17:49.599Z,17.87
2023-05-09T10:18:49.596Z,17.89
2023-05-09T10:19:49.479Z,17.95
2023-05-09T10:20:49.456Z,17.92
2023-05-09T10:21:49.446Z,18.04
2023-05-09T10:22:49.425Z,18.11
2023-05-09T10:23:49.418Z,18.19
2023-05-09T10:24:49.404Z,18.20
2023-05-09T10:25:49.384Z,18.11
2023-05-09T10:26:49.389Z,18.01
2023-05-09T10:27:49.382Z,18.03
2023-05-09T10:28:49.341Z,18.11
2023-05-09T10:29:49.345Z,18.15
2023-05-09T10:30:49.447Z,18.11
2023-05-09T10:31:49.329Z,18.13
2023-05-09T10:32:49.311Z,18.11
2023-05-09T10:33:49.326Z,18.11
2023-05-09T10:34:49.269Z,18.11
2023-05-09T10:35:49.258Z,18.22
2023-05-09T10:36:49.232Z,18.26
2023-05-09T10:37:49.233Z,18.15
2023-05-09T10:38:49.233Z,18.07
2023-05-09T10:39:49.212Z,18.05
2023-05-09T10:40:49.193Z,18.05
2023-05-09T10:41:49.175Z,18.13
2023-05-09T10:42:49.170Z,18.26
2023-05-09T10:43:49.167Z,18.28
2023-05-09T10:44:49.129Z,18.25
2023-05-09T10:45:49.121Z,18.29
2023-05-09T10:46:49.257Z,18.28
2023-05-09T10:47:49.123Z,18.18
2023-05-09T10:48:49.103Z,18.26
2023-05-09T10:49:49.067Z,18.33
2023-05-09T10:50:49.051Z,18.45
2023-05-09T10:51:49.044Z,18.52
2023-05-09T10:52:49.037Z,18.60
2023-05-09T10:53:49.053Z,18.70
2023-05-09T10:54:49.007Z,18.66
2023-05-09T10:55:48.994Z,18.55
2023-05-09T10:56:48.980Z,18.49
2023-05-09T10:57:48.976Z,18.45
2023-05-09T10:58:48.959Z,18.44
2023-05-09T10:59:48.951Z,18.52
2023-05-09T11:00:48.916Z,18.56
2023-05-09T11:01:48.995Z,18.55
2023-05-09T11:02:49.087Z,18.52
2023-05-09T11:03:48.995Z,18.53
2023-05-09T11:04:48.878Z,18.50
2023-05-09T11:05:48.871Z,18.53
2023-05-09T11:06:48.867Z,18.63
2023-05-09T11:07:48.846Z,18.63
2023-05-09T11:08:48.818Z,18.49
2023-05-09T11:09:48.823Z,18.53
2023-05-09T11:10:48.795Z,18.43
2023-05-09T11:11:48.784Z,18.35
2023-05-09T11:12:48.818Z,18.28
2023-05-09T11:13:48.779Z,18.25
2023-05-09T11:14:48.758Z,18.28
2023-05-09T11:15:48.732Z,18.23
2023-05-09T11:16:48.740Z,18.28
2023-05-09T11:17:48.755Z,18.33
2023-05-09T11:18:48.823Z,18.23
2023-05-09T11:19:48.681Z,18.23
2023-05-09T11:20:48.686Z,18.26
2023-05-09T11:21:48.685Z,18.28
2023-05-09T11:22:48.642Z,18.33
2023-05-09T11:23:48.647Z,18.28
2023-05-09T11:24:48.640Z,18.31
2023-05-09T11:25:48.621Z,18.23
2023-05-09T11:26:48.609Z,18.22
2023-05-09T11:27:48.590Z,18.15
2023-05-09T11:28:48.574Z,18.15
2023-05-09T11:29:48.553Z,18.26
2023-05-09T11:30:48.548Z,18.33
2023-05-09T11:31:48.586Z,18.47
2023-05-09T11:32:48.602Z,18.53
2023-05-09T11:33:48.512Z,18.62
2023-05-09T11:34:48.620Z,18.70
2023-05-09T11:35:48.479Z,18.80
2023-05-09T11:36:48.472Z,18.84
2023-05-09T11:37:48.486Z,18.90
2023-05-09T11:38:48.458Z,18.98
2023-05-09T11:39:48.440Z,19.08
2023-05-09T11:40:48.417Z,19.07
2023-05-09T11:41:48.426Z,19.07
2023-05-09T11:42:48.402Z,19.08
2023-05-09T11:43:48.388Z,19.08
2023-05-09T11:44:48.366Z,19.04
2023-05-09T11:45:48.445Z,18.95
2023-05-09T11:46:48.362Z,18.83
2023-05-09T11:47:48.356Z,18.70
2023-05-09T11:48:48.309Z,18.70
2023-05-09T11:49:48.302Z,18.65
2023-05-09T11:50:48.428Z,18.70
2023-05-09T11:51:48.284Z,18.71
2023-05-09T11:52:48.261Z,18.73
2023-05-09T11:53:48.254Z,18.75
2023-05-09T11:54:48.243Z,18.73
2023-05-09T11:55:48.222Z,18.70
2023-05-09T11:56:48.228Z,18.74
2023-05-09T11:57:48.205Z,18.71
2023-05-09T11:58:48.183Z,18.75
2023-05-09T11:59:48.177Z,18.74
2023-05-09T12:00:48.160Z,18.74
2023-05-09T12:01:48.145Z,18.78
2023-05-09T12:02:48.197Z,18.84
2023-05-09T12:03:48.213Z,18.89
2023-05-09T12:04:48.108Z,18.88
2023-05-09T12:05:48.092Z,18.90
2023-05-09T12:06:48.231Z,19.00
2023-05-09T12:07:48.076Z,19.07
2023-05-09T12:08:48.052Z,19.07
2023-05-09T12:09:48.046Z,18.84
2023-05-09T12:10:48.025Z,18.77
2023-05-09T12:11:49.895Z,18.81
2023-05-09T12:12:48.038Z,18.86
2023-05-09T12:13:48.025Z,18.84
2023-05-09T12:14:47.984Z,18.92
2023-05-09T12:15:48.008Z,18.95
2023-05-09T12:16:47.957Z,18.95
2023-05-09T12:17:51.319Z,18.95
2023-05-09T12:18:47.966Z,18.92
2023-05-09T12:19:47.914Z,18.93
2023-05-09T12:20:47.896Z,18.88
2023-05-09T12:21:47.890Z,18.90
2023-05-09T12:22:47.996Z,18.93
2023-05-09T12:23:50.556Z,19.02
2023-05-09T12:24:47.853Z,19.12
2023-05-09T12:25:47.833Z,19.15
2023-05-09T12:26:47.818Z,19.18
2023-05-09T12:27:47.813Z,19.24
2023-05-09T12:28:47.816Z,19.16
2023-05-09T12:29:47.793Z,19.15
2023-05-09T12:30:47.783Z,19.18
2023-05-09T12:31:47.817Z,19.22
2023-05-09T12:32:47.772Z,19.22
2023-05-09T12:33:47.728Z,19.27
2023-05-09T12:34:47.717Z,19.24
2023-05-09T12:35:47.704Z,19.21
2023-05-09T12:36:47.704Z,19.14
2023-05-09T12:37:47.681Z,19.09
2023-05-09T12:38:47.795Z,19.12
2023-05-09T12:39:47.661Z,19.19
2023-05-09T12:40:47.641Z,19.18
2023-05-09T12:42:00.508Z,19.15
2023-05-09T12:42:48.663Z,19.12
2023-05-09T12:43:47.598Z,19.07
2023-05-09T12:44:47.597Z,19.07
2023-05-09T12:45:47.575Z,19.08
2023-05-09T12:46:47.625Z,19.07
2023-05-09T12:47:47.619Z,19.00
2023-05-09T12:48:47.551Z,18.93
2023-05-09T12:49:47.528Z,18.93
2023-05-09T12:50:47.519Z,18.99
2023-05-09T12:51:47.505Z,18.84
2023-05-09T12:53:01.849Z,18.75